createdAt,value
2017-12-12T00:09:09.529Z,96110.12
2017-12-12T00:11:36.998Z,96111.42
2017-12-12T00:14:04.458Z,96118.20
2017-12-12T00:16:32.209Z,96144.92
2017-12-12T00:18:59.657Z,96151.42
2017-12-12T00:21:27.104Z,96145.30
2017-12-12T00:23:54.908Z,96140.10
2017-12-12T00:26:22.362Z,96155.30
2017-12-12T00:28:49.823Z,96151.42
2017-12-12T00:31:17.586Z,96155.38
2017-12-12T00:33:45.027Z,96175.37
2017-12-12T00:36:12.473Z,96187.08
2017-12-12T00:38:40.274Z,96200.67
2017-12-12T00:41:07.727Z,96208.88
2017-12-12T00:43:35.174Z,96210.06
2017-12-12T00:46:02.969Z,96207.88
2017-12-12T00:48:32.653Z,96213.20
2017-12-12T00:51:00.116Z,96224.06
2017-12-12T00:53:27.822Z,96228.63
2017-12-12T00:55:55.273Z,96235.17
2017-12-12T00:58:22.722Z,96248.34
2017-12-12T01:00:50.516Z,96250.87
2017-12-12T01:03:17.961Z,96262.48
2017-12-12T01:05:45.416Z,96266.39
2017-12-12T01:08:13.125Z,96281.00
2017-12-12T01:10:40.582Z,96273.81
2017-12-12T01:13:08.026Z,96270.67
2017-12-12T01:15:35.873Z,96285.41
2017-12-12T01:18:03.334Z,96283.77
2017-12-12T01:20:30.783Z,96286.20
2017-12-12T01:22:59.480Z,96302.29
2017-12-12T01:25:26.936Z,96307.28
2017-12-12T01:27:54.388Z,96312.80
2017-12-12T01:30:22.222Z,96311.98
2017-12-12T01:32:49.673Z,96328.30
2017-12-12T01:35:17.127Z,96337.53
2017-12-12T01:37:44.896Z,96345.55
2017-12-12T01:40:12.642Z,96342.48
2017-12-12T01:42:40.089Z,96359.66
2017-12-12T01:45:07.845Z,96374.89
2017-12-12T01:47:35.300Z,96378.26
2017-12-12T01:50:02.823Z,96380.37
2017-12-12T01:52:31.174Z,96397.39
2017-12-12T01:54:58.627Z,96411.86
2017-12-12T01:57:26.078Z,96409.73
2017-12-12T01:59:53.837Z,96420.01
2017-12-12T02:02:21.293Z,96421.34
2017-12-12T02:04:48.758Z,96425.36
2017-12-12T02:07:16.475Z,96424.59
2017-12-12T02:09:43.938Z,96426.91
2017-12-12T02:12:11.398Z,96444.42
2017-12-12T02:14:39.201Z,96449.06
2017-12-12T02:17:06.658Z,96444.13
2017-12-12T02:19:34.118Z,96457.17
2017-12-12T02:22:01.945Z,96465.56
2017-12-12T02:24:29.423Z,96475.47
2017-12-12T02:26:56.881Z,96480.45
2017-12-12T02:29:24.593Z,96490.16
2017-12-12T02:31:52.107Z,96483.38
2017-12-12T02:34:19.554Z,96480.91
2017-12-12T02:36:47.268Z,96493.28
2017-12-12T02:39:14.714Z,96492.03
2017-12-12T02:41:42.162Z,96509.56
2017-12-12T02:44:09.942Z,96522.11
2017-12-12T02:46:37.509Z,96535.45
2017-12-12T02:49:04.952Z,96531.13
2017-12-12T02:51:33.568Z,96535.94
2017-12-12T02:54:01.023Z,96537.59
2017-12-12T02:56:28.487Z,96560.55
2017-12-12T02:58:56.197Z,96567.16
2017-12-12T03:01:23.652Z,96580.30
2017-12-12T03:03:51.109Z,96579.48
2017-12-12T03:06:18.926Z,96582.20
2017-12-12T03:08:46.382Z,96595.82
2017-12-12T03:11:13.829Z,96603.45
2017-12-12T03:13:41.625Z,96606.98
2017-12-12T03:16:09.086Z,96618.66
2017-12-12T03:18:36.553Z,96622.23
2017-12-12T03:21:04.305Z,96640.63
2017-12-12T03:23:31.765Z,96648.77
2017-12-12T03:25:59.228Z,96662.19
2017-12-12T03:28:26.994Z,96663.70
2017-12-12T03:30:54.466Z,96665.41
2017-12-12T03:33:21.936Z,96672.07
2017-12-12T03:35:49.666Z,96684.44
2017-12-12T03:38:17.128Z,96695.67
2017-12-12T03:40:44.591Z,96709.29
2017-12-12T03:43:12.682Z,96717.89
2017-12-12T03:45:40.140Z,96715.36
2017-12-12T03:48:07.594Z,96722.68
2017-12-12T03:50:35.669Z,96728.30
2017-12-12T03:53:03.825Z,96734.31
2017-12-12T03:55:31.280Z,96739.71
2017-12-12T03:57:59.284Z,96750.22
2017-12-12T04:00:26.749Z,96763.39
2017-12-12T04:02:54.201Z,96767.03
2017-12-12T04:05:21.970Z,96771.30
2017-12-12T04:07:49.445Z,96783.50
2017-12-12T04:10:16.910Z,96784.24
2017-12-12T04:12:44.654Z,96791.21
2017-12-12T04:15:12.117Z,96808.05
2017-12-12T04:17:39.580Z,96819.73
2017-12-12T04:20:07.332Z,96819.31
2017-12-12T04:22:34.789Z,96821.83
2017-12-12T04:25:02.246Z,96837.25
2017-12-12T04:27:30.346Z,96845.86
2017-12-12T04:29:57.801Z,96842.62
2017-12-12T04:32:25.260Z,96846.67
2017-12-12T04:34:52.870Z,96851.53
2017-12-12T04:37:20.332Z,96860.89
2017-12-12T04:39:47.773Z,96876.28
2017-12-12T04:42:15.701Z,96887.22
2017-12-12T04:44:43.148Z,96889.16
2017-12-12T04:47:10.604Z,96899.17
2017-12-12T04:49:38.393Z,96903.80
2017-12-12T04:52:05.850Z,96896.08
2017-12-12T04:54:33.693Z,96908.20
2017-12-12T04:57:01.565Z,96908.62
2017-12-12T04:59:29.019Z,96910.91
2017-12-12T05:01:56.469Z,96921.30
2017-12-12T05:04:24.396Z,96923.32
2017-12-12T05:06:51.863Z,96939.36
2017-12-12T05:09:19.308Z,96946.66
2017-12-12T05:11:47.038Z,96955.75
2017-12-12T05:14:14.484Z,96948.69
2017-12-12T05:16:41.932Z,96961.30
2017-12-12T05:19:09.769Z,96969.58
2017-12-12T05:21:37.213Z,96995.48
2017-12-12T05:24:04.659Z,96995.44
2017-12-12T05:26:33.053Z,96989.97
2017-12-12T05:29:00.492Z,96991.83
2017-12-12T05:31:27.933Z,96992.71
2017-12-12T05:33:55.746Z,96992.44
2017-12-12T05:36:23.192Z,96986.72
2017-12-12T05:38:50.648Z,96988.53
2017-12-12T05:41:18.742Z,97007.73
2017-12-12T05:43:46.193Z,97008.30
2017-12-12T05:46:13.642Z,97006.39
2017-12-12T05:48:41.432Z,97015.67
2017-12-12T05:51:08.877Z,97020.92
2017-12-12T05:53:36.327Z,97022.72
2017-12-12T05:56:04.531Z,97030.78
2017-12-12T05:58:31.979Z,97031.84
2017-12-12T06:00:59.426Z,97032.50
2017-12-12T06:03:27.410Z,97029.91
2017-12-12T06:05:54.854Z,97025.80
2017-12-12T06:08:22.305Z,97029.08
2017-12-12T06:10:50.100Z,97028.23
2017-12-12T06:13:17.558Z,97028.13
2017-12-12T06:15:44.997Z,97022.09
2017-12-12T06:18:12.786Z,97010.70
2017-12-12T06:20:40.228Z,97007.34
2017-12-12T06:23:07.681Z,97017.95
2017-12-12T06:25:35.465Z,97032.40
2017-12-12T06:28:02.913Z,97046.09
2017-12-12T06:30:30.365Z,97031.01
2017-12-12T06:32:58.162Z,97027.20
2017-12-12T06:35:25.618Z,97027.72
2017-12-12T06:37:53.068Z,97040.56
2017-12-12T06:40:21.158Z,97070.39
2017-12-12T06:42:48.612Z,97063.30
2017-12-12T06:45:16.066Z,97046.14
2017-12-12T06:47:43.767Z,97046.19
2017-12-12T06:50:11.213Z,97051.77
2017-12-12T06:52:38.661Z,97043.76
2017-12-12T06:55:06.538Z,97053.92
2017-12-12T06:57:34.651Z,97068.11
2017-12-12T07:00:02.118Z,97069.83
2017-12-12T07:02:29.846Z,97075.64
2017-12-12T07:04:57.299Z,97075.63
2017-12-12T07:07:24.759Z,97086.16
2017-12-12T07:09:52.420Z,97088.30
2017-12-12T07:12:19.864Z,97096.41
2017-12-12T07:14:47.309Z,97095.45
2017-12-12T07:17:15.192Z,97109.19
2017-12-12T07:19:42.669Z,97124.63
2017-12-12T07:22:10.145Z,97120.73
2017-12-12T07:24:37.885Z,97132.19
2017-12-12T07:27:05.341Z,97146.80
2017-12-12T07:29:32.800Z,97150.84
2017-12-12T07:32:00.573Z,97158.89
2017-12-12T07:34:28.029Z,97150.49
2017-12-12T07:36:55.478Z,97154.80
2017-12-12T07:39:23.264Z,97159.45
2017-12-12T07:41:50.713Z,97173.63
2017-12-12T07:44:18.166Z,97167.33
2017-12-12T07:46:45.962Z,97181.52
2017-12-12T07:49:13.418Z,97196.09
2017-12-12T07:51:40.869Z,97200.81
2017-12-12T07:54:08.634Z,97205.69
2017-12-12T07:56:36.081Z,97219.70
2017-12-12T07:59:03.924Z,97233.59
2017-12-12T08:01:31.776Z,97222.68
2017-12-12T08:03:59.229Z,97210.36
2017-12-12T08:06:26.682Z,97235.40
2017-12-12T08:08:54.675Z,97250.84
2017-12-12T08:11:22.102Z,97247.39
2017-12-12T08:13:49.560Z,97248.80
2017-12-12T08:16:17.310Z,97259.89
2017-12-12T08:18:44.758Z,97277.89
2017-12-12T08:21:12.209Z,97297.11
2017-12-12T08:23:39.992Z,97301.63
2017-12-12T08:26:07.745Z,97298.16
2017-12-12T08:28:35.197Z,97299.95
2017-12-12T08:31:03.309Z,97309.15
2017-12-12T08:33:30.769Z,97318.88
2017-12-12T08:35:58.230Z,97320.21
2017-12-12T08:38:25.954Z,97332.33
2017-12-12T08:40:53.405Z,97317.86
2017-12-12T08:43:20.861Z,97333.23
2017-12-12T08:45:48.673Z,97330.25
2017-12-12T08:48:16.119Z,97332.61
2017-12-12T08:50:43.573Z,97345.12
2017-12-12T08:53:11.983Z,97345.27
2017-12-12T08:55:39.451Z,97351.59
2017-12-12T08:58:06.908Z,97358.27
2017-12-12T09:00:34.660Z,97359.84
2017-12-12T09:03:02.130Z,97373.54
2017-12-12T09:05:29.609Z,97390.14
2017-12-12T09:07:57.963Z,97402.27
2017-12-12T09:10:25.436Z,97407.72
2017-12-12T09:12:52.892Z,97413.33
2017-12-12T09:15:20.657Z,97417.86
2017-12-12T09:17:48.108Z,97431.12
2017-12-12T09:20:15.554Z,97445.17
2017-12-12T09:22:43.344Z,97457.51
2017-12-12T09:25:10.794Z,97470.95
2017-12-12T09:27:38.234Z,97476.87
2017-12-12T09:30:05.844Z,97483.55
2017-12-12T09:32:33.297Z,97477.78
2017-12-12T09:35:00.746Z,97479.09
2017-12-12T09:37:28.710Z,97484.16
2017-12-12T09:46:40.021Z,97509.09
2017-12-12T09:49:07.465Z,97515.87
2017-12-12T09:51:34.920Z,97509.57
2017-12-12T09:54:02.833Z,97513.67
2017-12-12T09:56:30.305Z,97522.40
2017-12-12T09:58:57.753Z,97524.23
2017-12-12T10:01:28.293Z,97523.53
2017-12-12T10:03:55.741Z,97532.06
2017-12-12T10:06:23.185Z,97543.32
2017-12-12T10:08:50.974Z,97544.06
2017-12-12T10:11:18.421Z,97560.17
2017-12-12T10:13:45.873Z,97567.98
2017-12-12T10:16:13.530Z,97592.23
2017-12-12T10:18:40.988Z,97607.48
2017-12-12T10:21:08.437Z,97646.39
2017-12-12T10:23:36.033Z,97615.02
2017-12-12T10:26:03.484Z,97649.62
2017-12-12T10:28:30.941Z,97660.30
2017-12-12T10:30:59.344Z,97638.65
2017-12-12T10:33:26.796Z,97653.41
2017-12-12T10:35:54.253Z,97671.55
2017-12-12T10:38:22.023Z,97656.55
2017-12-12T10:40:49.476Z,97678.61
2017-12-12T10:43:16.933Z,97655.23
2017-12-12T10:45:44.721Z,97660.67
2017-12-12T10:48:12.177Z,97662.91
2017-12-12T10:50:39.627Z,97671.41
2017-12-12T10:53:07.708Z,97669.94
2017-12-12T10:55:35.156Z,97681.52
2017-12-12T10:58:02.614Z,97705.76
2017-12-12T11:00:30.392Z,97694.70
2017-12-12T11:02:58.854Z,97701.34
2017-12-12T11:05:26.306Z,97696.16
2017-12-12T11:07:54.318Z,97691.23
2017-12-12T11:10:21.781Z,97703.71
2017-12-12T11:12:49.226Z,97694.27
2017-12-12T11:15:16.995Z,97715.70
2017-12-12T11:17:44.446Z,97709.89
2017-12-12T11:20:11.895Z,97721.09
2017-12-12T11:22:39.505Z,97718.92
2017-12-12T11:25:06.957Z,97718.47
2017-12-12T11:27:34.402Z,97706.24
2017-12-12T11:30:03.299Z,97709.47
2017-12-12T11:32:30.740Z,97713.94
2017-12-12T11:34:58.189Z,97718.70
2017-12-12T11:37:37.665Z,97725.62
2017-12-12T11:40:05.166Z,97721.67
2017-12-12T11:42:32.609Z,97731.61
2017-12-12T11:45:00.306Z,97732.98
2017-12-12T11:47:27.761Z,97751.22
2017-12-12T11:49:55.205Z,97762.25
2017-12-12T11:52:23.335Z,97751.70
2017-12-12T11:54:50.780Z,97755.61
2017-12-12T11:57:18.237Z,97765.86
2017-12-12T11:59:46.033Z,97753.90
2017-12-12T12:02:13.483Z,97768.20
2017-12-12T12:04:41.339Z,97778.02
2017-12-12T12:07:09.338Z,97790.94
2017-12-12T12:09:36.777Z,97787.67
2017-12-12T12:12:04.248Z,97790.81
2017-12-12T12:14:31.939Z,97793.97
2017-12-12T12:16:59.395Z,97789.76
2017-12-12T12:19:26.833Z,97789.61
2017-12-12T12:21:54.777Z,97783.63
2017-12-12T12:24:22.217Z,97784.30
2017-12-12T12:26:49.667Z,97786.89
2017-12-12T12:29:17.377Z,97788.05
2017-12-12T12:31:44.816Z,97785.45
2017-12-12T12:34:12.262Z,97797.41
2017-12-12T12:36:40.071Z,97796.89
2017-12-12T12:39:07.508Z,97798.05
2017-12-12T12:41:34.961Z,97817.77
2017-12-12T12:44:02.702Z,97809.95
2017-12-12T12:46:30.144Z,97815.33
2017-12-12T12:48:57.593Z,97813.22
2017-12-12T12:51:25.423Z,97827.78
2017-12-12T12:53:52.866Z,97824.19
2017-12-12T12:56:20.324Z,97819.36
2017-12-12T12:58:48.143Z,97833.37
2017-12-12T13:01:15.599Z,97824.30
2017-12-12T13:03:43.050Z,97837.30
2017-12-12T13:06:12.036Z,97847.13
2017-12-12T13:08:39.482Z,97850.26
2017-12-12T13:11:06.921Z,97847.88
2017-12-12T13:13:34.738Z,97846.72
2017-12-12T13:16:02.185Z,97856.70
2017-12-12T13:18:29.632Z,97864.48
2017-12-12T13:20:57.413Z,97865.39
2017-12-12T13:23:24.861Z,97874.35
2017-12-12T13:25:52.314Z,97871.61
2017-12-12T13:28:20.064Z,97876.81
2017-12-12T13:30:47.515Z,97881.59
2017-12-12T13:33:14.966Z,97878.28
2017-12-12T13:35:42.599Z,97879.95
2017-12-12T13:38:10.049Z,97888.05
2017-12-12T13:40:37.499Z,97898.92
2017-12-12T13:43:05.181Z,97896.98
2017-12-12T13:45:32.622Z,97899.63
2017-12-12T13:48:00.085Z,97902.91
2017-12-12T13:50:27.879Z,97894.27
2017-12-12T13:52:55.326Z,97909.23
2017-12-12T13:55:22.779Z,97914.00
2017-12-12T13:57:50.560Z,97920.19
2017-12-12T14:00:18.013Z,97923.48
2017-12-12T14:02:45.461Z,97920.72
2017-12-12T14:05:13.247Z,97913.41
2017-12-12T14:07:42.297Z,97926.98
2017-12-12T14:10:09.741Z,97930.86
2017-12-12T14:12:37.465Z,97932.04
2017-12-12T14:15:04.916Z,97942.17
2017-12-12T14:17:32.377Z,97944.63
2017-12-12T14:20:00.462Z,97945.78
2017-12-12T14:22:27.913Z,97951.12
2017-12-12T14:24:55.357Z,97955.69
2017-12-12T14:27:23.065Z,97958.39
2017-12-12T14:29:50.521Z,97959.97
2017-12-12T14:32:17.960Z,97960.78
2017-12-12T14:34:45.824Z,97965.05
2017-12-12T14:37:13.270Z,97969.42
2017-12-12T14:39:40.710Z,97972.53
2017-12-12T14:42:08.514Z,97975.13
2017-12-12T14:44:35.985Z,97977.85
2017-12-12T14:47:03.441Z,97988.31
2017-12-12T14:49:31.201Z,97999.20
2017-12-12T14:51:58.654Z,97994.23
2017-12-12T14:54:26.098Z,97999.81
2017-12-12T14:56:53.884Z,98004.20
2017-12-12T14:59:21.334Z,98011.91
2017-12-12T15:01:48.777Z,98010.44
2017-12-12T15:04:16.879Z,98015.06
2017-12-12T15:06:44.331Z,98012.09
2017-12-12T15:09:13.473Z,98013.01
2017-12-12T15:11:41.411Z,98024.52
2017-12-12T15:14:08.873Z,98026.55
2017-12-12T15:16:36.319Z,98035.95
2017-12-12T15:19:04.111Z,98039.28
2017-12-12T15:21:31.557Z,98044.42
2017-12-12T15:23:59.007Z,98041.83
2017-12-12T15:26:26.797Z,98046.16
2017-12-12T15:28:54.246Z,98053.10
2017-12-12T15:31:21.712Z,98060.06
2017-12-12T15:33:49.347Z,98060.97
2017-12-12T15:36:16.798Z,98063.06
2017-12-12T15:38:44.242Z,98063.91
2017-12-12T15:41:11.975Z,98072.40
2017-12-12T15:43:39.429Z,98065.56
2017-12-12T15:46:06.882Z,98068.14
2017-12-12T15:48:34.846Z,98075.07
2017-12-12T15:51:02.312Z,98075.30
2017-12-12T15:53:29.757Z,98085.83
2017-12-12T15:55:57.690Z,98094.44
2017-12-12T15:58:25.145Z,98096.88
2017-12-12T16:00:52.610Z,98096.63
2017-12-12T16:03:20.233Z,98108.19
2017-12-12T16:05:47.680Z,98120.56
2017-12-12T16:08:15.132Z,98117.25
2017-12-12T16:10:43.217Z,98124.83
2017-12-12T16:13:10.677Z,98135.68
2017-12-12T16:15:38.130Z,98141.32
2017-12-12T16:18:06.154Z,98135.60
2017-12-12T16:20:33.610Z,98144.34
2017-12-12T16:23:01.061Z,98143.00
2017-12-12T16:25:28.894Z,98146.39
2017-12-12T16:27:56.333Z,98157.72
2017-12-12T16:30:23.826Z,98157.44
2017-12-12T16:32:51.579Z,98162.52
2017-12-12T16:35:19.050Z,98160.59
2017-12-12T16:37:46.508Z,98167.91
2017-12-12T16:40:14.273Z,98165.41
2017-12-12T16:42:41.728Z,98172.77
2017-12-12T16:45:09.170Z,98179.42
2017-12-12T16:47:37.278Z,98169.02
2017-12-12T16:50:04.727Z,98178.66
2017-12-12T16:52:32.193Z,98181.02
2017-12-12T16:54:59.950Z,98185.64
2017-12-12T16:57:27.394Z,98189.79
2017-12-12T16:59:54.853Z,98193.56
2017-12-12T17:02:22.910Z,98196.61
2017-12-12T17:04:50.360Z,98198.88
2017-12-12T17:07:17.810Z,98204.41
2017-12-12T17:09:45.630Z,98199.38
2017-12-12T17:12:13.485Z,98210.55
2017-12-12T17:14:41.798Z,98211.95
2017-12-12T17:17:10.168Z,98218.20
2017-12-12T17:19:37.910Z,98228.93
2017-12-12T17:22:06.026Z,98232.94
2017-12-12T17:24:34.199Z,98234.63
2017-12-12T17:27:01.901Z,98241.56
2017-12-12T17:29:30.030Z,98239.17
2017-12-12T17:31:58.402Z,98252.10
2017-12-12T17:34:26.297Z,98249.12
2017-12-12T17:36:54.051Z,98260.03
2017-12-12T17:39:21.905Z,98266.74
2017-12-12T17:41:49.957Z,98261.86
2017-12-12T17:44:18.287Z,98265.41
2017-12-12T17:46:46.017Z,98271.91
2017-12-12T17:49:14.129Z,98275.59
2017-12-12T17:51:42.508Z,98277.64
2017-12-12T17:54:10.362Z,98281.76
2017-12-12T17:56:38.353Z,98291.02
2017-12-12T17:59:06.415Z,98293.53
2017-12-12T18:01:34.895Z,98301.92
2017-12-12T18:04:03.003Z,98302.70
2017-12-12T18:06:31.251Z,98302.80
2017-12-12T18:08:59.676Z,98303.57
2017-12-12T18:11:27.746Z,98314.09
2017-12-12T18:13:56.249Z,98320.53
2017-12-12T18:16:24.684Z,98310.21
2017-12-12T18:18:52.374Z,98314.22
2017-12-12T18:21:19.907Z,98318.02
2017-12-12T18:23:47.893Z,98322.36
2017-12-12T18:26:16.169Z,98319.84
2017-12-12T18:28:43.933Z,98321.64
2017-12-12T18:31:12.410Z,98329.09
2017-12-12T18:33:40.574Z,98324.82
2017-12-12T18:36:08.591Z,98329.55
2017-12-12T18:38:36.356Z,98327.46
2017-12-12T18:41:03.807Z,98328.97
2017-12-12T18:43:31.542Z,98325.86
2017-12-12T18:45:59.273Z,98333.13
2017-12-12T18:48:26.751Z,98329.38
2017-12-12T18:50:54.226Z,98336.31
2017-12-12T18:53:22.004Z,98341.38
2017-12-12T18:55:49.485Z,98343.68
2017-12-12T18:58:16.943Z,98347.13
2017-12-12T19:00:44.674Z,98348.61
2017-12-12T19:03:13.028Z,98352.82
2017-12-12T19:05:40.501Z,98355.34
2017-12-12T19:08:08.317Z,98350.77
2017-12-12T19:10:35.764Z,98358.11
2017-12-12T19:13:03.211Z,98352.80
2017-12-12T19:15:31.592Z,98348.58
2017-12-12T19:17:59.058Z,98355.07
2017-12-12T19:20:26.529Z,98359.86
2017-12-12T19:22:54.588Z,98352.96
2017-12-12T19:25:22.047Z,98356.06
2017-12-12T19:27:49.633Z,98356.00
2017-12-12T19:30:18.200Z,98367.92
2017-12-12T19:32:45.668Z,98360.02
2017-12-12T19:35:13.155Z,98365.11
2017-12-12T19:37:40.901Z,98369.23
2017-12-12T19:40:08.380Z,98365.33
2017-12-12T19:42:35.854Z,98367.67
2017-12-12T19:45:03.844Z,98371.59
2017-12-12T19:47:31.317Z,98371.55
2017-12-12T19:49:58.786Z,98372.33
2017-12-12T19:52:26.878Z,98369.14
2017-12-12T19:54:54.331Z,98372.89
2017-12-12T19:57:21.806Z,98375.19
2017-12-12T19:59:49.693Z,98369.34
2017-12-12T20:02:17.159Z,98359.48
2017-12-12T20:04:44.633Z,98361.55
2017-12-12T20:07:12.622Z,98371.16
2017-12-12T20:09:40.092Z,98369.42
2017-12-12T20:12:07.604Z,98372.25
2017-12-12T20:14:36.016Z,98373.66
2017-12-12T20:17:03.728Z,98373.95
2017-12-12T20:19:31.257Z,98375.02
2017-12-12T20:21:58.877Z,98371.55
2017-12-12T20:24:26.360Z,98372.33
2017-12-12T20:26:53.858Z,98368.48
2017-12-12T20:29:21.592Z,98360.55
2017-12-12T20:31:49.075Z,98366.05
2017-12-12T20:34:17.314Z,98367.12
2017-12-12T20:36:45.046Z,98368.23
2017-12-12T20:39:12.509Z,98366.33
2017-12-12T20:41:40.537Z,98372.77
2017-12-12T20:44:09.174Z,98375.39
2017-12-12T20:46:36.634Z,98384.04
2017-12-12T20:49:04.128Z,98386.87
2017-12-12T20:51:32.057Z,98393.02
2017-12-12T20:53:59.838Z,98405.52
2017-12-12T20:56:27.652Z,98401.83
2017-12-12T20:58:56.053Z,98407.09
2017-12-12T21:01:24.347Z,98397.13
2017-12-12T21:03:52.470Z,98403.27
2017-12-12T21:06:20.760Z,98408.82
2017-12-12T21:08:48.785Z,98413.13
2017-12-12T21:11:16.856Z,98407.78
2017-12-12T21:13:45.857Z,98405.19
2017-12-12T21:16:13.622Z,98410.01
2017-12-12T21:18:41.711Z,98407.48
2017-12-12T21:21:10.166Z,98410.42
2017-12-12T21:23:37.646Z,98412.08
2017-12-12T21:26:05.319Z,98416.80
2017-12-12T21:28:33.578Z,98433.30
2017-12-12T21:31:01.701Z,98432.09
2017-12-12T21:33:29.522Z,98447.04
2017-12-12T21:35:57.729Z,98448.75
2017-12-12T21:38:25.182Z,98449.98
2017-12-12T21:40:54.282Z,98441.16
2017-12-12T21:43:22.830Z,98445.37
2017-12-12T21:45:50.820Z,98436.17
2017-12-12T21:48:18.897Z,98443.81
2017-12-12T21:50:47.005Z,98457.81
2017-12-12T21:53:14.473Z,98459.20
2017-12-12T21:55:41.923Z,98451.45
2017-12-12T21:58:09.758Z,98452.23
2017-12-12T22:00:37.202Z,98449.53
2017-12-12T22:03:04.654Z,98443.83
2017-12-12T22:05:32.379Z,98456.36
2017-12-12T22:07:59.844Z,98456.45
2017-12-12T22:10:27.330Z,98453.89
2017-12-12T22:12:54.990Z,98458.70
2017-12-12T22:15:22.453Z,98459.14
2017-12-12T22:17:49.953Z,98464.42
2017-12-12T22:20:17.813Z,98468.81
2017-12-12T22:22:45.315Z,98463.58
2017-12-12T22:25:12.963Z,98468.91
2017-12-12T22:27:41.161Z,98470.22
2017-12-12T22:30:08.610Z,98472.03
2017-12-12T22:32:36.054Z,98471.91
2017-12-12T22:35:04.100Z,98471.68
2017-12-12T22:37:31.544Z,98473.98
2017-12-12T22:39:58.997Z,98473.98
2017-12-12T22:42:26.719Z,98475.61
2017-12-12T22:44:54.176Z,98482.73
2017-12-12T22:47:21.623Z,98485.31
2017-12-12T22:49:49.473Z,98492.73
2017-12-12T22:52:16.917Z,98495.05
2017-12-12T22:54:44.374Z,98495.08
2017-12-12T22:57:12.776Z,98499.45
2017-12-12T22:59:40.217Z,98492.30
2017-12-12T23:02:07.677Z,98487.11
2017-12-12T23:04:35.468Z,98479.94
2017-12-12T23:07:02.922Z,98483.67
2017-12-12T23:09:30.377Z,98497.04
2017-12-12T23:11:58.773Z,98498.42
2017-12-12T23:14:26.226Z,98500.25
2017-12-12T23:16:53.672Z,98501.00
2017-12-12T23:19:21.447Z,98494.97
2017-12-12T23:21:49.734Z,98493.00
2017-12-12T23:24:17.184Z,98488.25
2017-12-12T23:26:45.005Z,98483.66
2017-12-12T23:29:12.461Z,98491.96
2017-12-12T23:31:39.932Z,98484.27
2017-12-12T23:34:07.746Z,98482.70
2017-12-12T23:36:35.190Z,98477.36
2017-12-12T23:39:02.647Z,98474.94
2017-12-12T23:41:30.434Z,98474.48
2017-12-12T23:43:57.885Z,98481.55
2017-12-12T23:46:25.337Z,98479.58
2017-12-12T23:48:53.125Z,98480.53
2017-12-12T23:51:20.587Z,98485.36
2017-12-12T23:53:48.038Z,98487.38
2017-12-12T23:56:16.205Z,98486.42
2017-12-12T23:58:43.661Z,98496.63
